createdAt,value
2018-07-08T00:02:00.117Z,97344.35
2018-07-08T00:04:30.247Z,97340.07
2018-07-08T00:07:00.151Z,97337.55
2018-07-08T00:09:30.219Z,97340.95
2018-07-08T00:12:00.281Z,97337.12
2018-07-08T00:14:30.156Z,97337.58
2018-07-08T00:17:00.241Z,97335.91
2018-07-08T00:19:30.398Z,97331.65
2018-07-08T00:22:00.254Z,97333.37
2018-07-08T00:24:30.521Z,97342.77
2018-07-08T00:27:00.509Z,97334.24
2018-07-08T00:29:30.407Z,97338.55
2018-07-08T00:32:00.320Z,97336.00
2018-07-08T00:57:05.777Z,97335.17
2018-07-08T00:59:35.499Z,97323.48
2018-07-08T01:02:04.706Z,97331.97
2018-07-08T01:04:33.784Z,97343.52
2018-07-08T01:07:02.930Z,97343.54
2018-07-08T01:09:32.039Z,97351.27
2018-07-08T01:12:01.222Z,97343.20
2018-07-08T01:14:30.896Z,97344.91
2018-07-08T01:17:00.852Z,97346.20
2018-07-08T01:19:31.790Z,97351.73
2018-07-08T01:22:01.009Z,97351.33
2018-07-08T01:24:31.188Z,97344.08
2018-07-08T01:27:00.902Z,97345.81
2018-07-08T01:29:30.251Z,97347.50
2018-07-08T01:31:59.290Z,97350.93
2018-07-08T01:34:28.326Z,97350.06
2018-07-08T01:36:57.381Z,97346.67
2018-07-08T01:39:26.864Z,97342.39
2018-07-08T01:41:56.114Z,97340.73
2018-07-08T01:44:25.719Z,97342.42
2018-07-08T01:46:54.701Z,97339.88
2018-07-08T01:49:24.231Z,97341.61
2018-07-08T01:51:53.814Z,97337.41
2018-07-08T01:54:23.221Z,97342.52
2018-07-08T01:56:52.719Z,97342.52
2018-07-08T01:59:21.887Z,97335.24
2018-07-08T02:01:51.335Z,97333.11
2018-07-08T02:04:20.899Z,97335.67
2018-07-08T02:06:49.937Z,97332.70
2018-07-08T02:09:19.489Z,97333.98
2018-07-08T02:11:49.172Z,97337.82
2018-07-08T02:14:18.203Z,97333.98
2018-07-08T02:16:47.599Z,97333.97
2018-07-08T02:19:17.347Z,97332.28
2018-07-08T02:21:46.809Z,97334.84
2018-07-08T02:24:16.073Z,97334.03
2018-07-08T02:26:45.169Z,97330.20
2018-07-08T02:29:14.321Z,97337.42
2018-07-08T02:31:43.703Z,97334.02
2018-07-08T02:34:12.848Z,97334.44
2018-07-08T02:36:41.943Z,97339.16
2018-07-08T02:39:10.981Z,97338.74
2018-07-08T02:41:40.040Z,97333.19
2018-07-08T02:44:09.094Z,97333.20
2018-07-08T02:46:38.166Z,97328.94
2018-07-08T02:49:07.220Z,97332.34
2018-07-08T02:51:36.548Z,97333.20
2018-07-08T02:54:05.608Z,97337.45
2018-07-08T02:56:34.743Z,97337.45
2018-07-08T02:59:03.924Z,97337.46
2018-07-08T03:01:33.156Z,97336.19
2018-07-08T03:04:03.126Z,97335.77
2018-07-08T03:06:33.161Z,97325.98
2018-07-08T03:09:03.180Z,97325.55
2018-07-08T03:11:33.300Z,97332.35
2018-07-08T03:14:03.204Z,97331.50
2018-07-08T03:16:33.280Z,97333.64
2018-07-08T03:19:03.197Z,97334.06
2018-07-08T03:21:33.308Z,97334.05
2018-07-08T03:24:03.496Z,97334.47
2018-07-08T03:26:33.352Z,97329.38
2018-07-08T03:29:03.642Z,97334.89
2018-07-08T03:31:33.606Z,97334.05
2018-07-08T03:34:03.896Z,97335.34
2018-07-08T03:36:33.431Z,97337.47
2018-07-08T03:39:03.861Z,97340.85
2018-07-08T03:41:33.571Z,97339.15
2018-07-08T03:44:03.976Z,97338.73
2018-07-08T03:46:34.302Z,97340.00
2018-07-08T03:49:03.992Z,97335.75
2018-07-08T03:51:33.854Z,97339.17
2018-07-08T03:54:03.974Z,97340.45
2018-07-08T03:56:33.550Z,97340.86
2018-07-08T04:18:22.689Z,97339.17
2018-07-08T04:20:52.065Z,97340.87
2018-07-08T04:23:21.137Z,97342.56
2018-07-08T04:25:50.185Z,97345.95
2018-07-08T04:28:19.229Z,97340.85
2018-07-08T04:30:48.264Z,97342.56
2018-07-08T04:33:17.270Z,97345.10
2018-07-08T04:35:46.360Z,97347.23
2018-07-08T04:38:15.400Z,97345.94
2018-07-08T04:40:44.834Z,97355.73
2018-07-08T04:43:14.013Z,97357.03
2018-07-08T04:45:43.544Z,97359.59
2018-07-08T04:48:12.921Z,97360.00
2018-07-08T04:50:42.128Z,97359.55
2018-07-08T04:53:11.221Z,97359.56
2018-07-08T04:55:40.239Z,97366.36
2018-07-08T04:58:09.295Z,97364.61
2018-07-08T05:01:09.039Z,97360.77
2018-07-08T05:03:38.105Z,97358.17
2018-07-08T05:06:08.644Z,97350.06
2018-07-08T05:08:37.758Z,97356.05
2018-07-08T05:11:07.003Z,97355.99
2018-07-08T05:13:36.209Z,97354.28
2018-07-08T05:16:05.416Z,97352.49
2018-07-08T05:18:34.464Z,97355.47
2018-07-08T05:21:04.569Z,97354.11
2018-07-08T05:23:34.423Z,97349.78
2018-07-08T05:26:04.551Z,97346.73
2018-07-08T05:28:34.473Z,97346.74
2018-07-08T05:31:04.428Z,97345.40
2018-07-08T05:33:34.479Z,97343.61
2018-07-08T05:36:04.697Z,97346.11
2018-07-08T05:38:34.521Z,97345.64
2018-07-08T05:41:04.577Z,97345.16
2018-07-08T05:43:33.618Z,97342.59
2018-07-08T05:46:02.662Z,97341.70
2018-07-08T05:48:32.138Z,97344.28
2018-07-08T05:51:01.259Z,97342.06
2018-07-08T05:53:30.710Z,97336.44
2018-07-08T05:55:59.776Z,97345.37
2018-07-08T05:58:29.368Z,97341.08
2018-07-08T06:00:58.804Z,97344.92
2018-07-08T06:03:28.325Z,97349.13
2018-07-08T06:05:57.692Z,97353.33
2018-07-08T06:08:26.808Z,97354.10
2018-07-08T06:10:55.880Z,97352.31
2018-07-08T06:13:25.009Z,97353.97
2018-07-08T06:15:54.116Z,97347.02
2018-07-08T06:18:23.208Z,97350.28
2018-07-08T06:20:52.429Z,97351.91
2018-07-08T06:23:22.167Z,97348.37
2018-07-08T06:25:52.834Z,97355.97
2018-07-08T06:28:23.555Z,97353.30
2018-07-08T06:30:54.257Z,97350.72
2018-07-08T06:33:24.922Z,97348.94
2018-07-08T06:35:55.268Z,97351.88
2018-07-08T06:38:25.639Z,97346.30
2018-07-08T06:40:56.347Z,97349.59
2018-07-08T06:43:26.910Z,97347.78
2018-07-08T06:45:57.238Z,97350.15
2018-07-08T06:48:28.122Z,97345.62
2018-07-08T06:50:58.896Z,97353.84
2018-07-08T06:53:29.612Z,97355.87
2018-07-08T06:56:00.371Z,97357.01
2018-07-08T06:58:32.004Z,97354.70
2018-07-08T07:01:02.516Z,97354.13
2018-07-08T07:03:32.837Z,97352.77
2018-07-08T07:06:03.524Z,97348.03
2018-07-08T07:08:34.315Z,97350.50
2018-07-08T07:11:05.352Z,97350.34
2018-07-08T07:13:36.310Z,97349.27
2018-07-08T07:16:08.079Z,97351.78
2018-07-08T07:18:38.216Z,97351.67
2018-07-08T07:21:08.996Z,97354.28
2018-07-08T07:23:39.172Z,97352.47
2018-07-08T07:26:09.513Z,97342.13
2018-07-08T07:28:40.126Z,97337.81
2018-07-08T07:32:21.548Z,97342.70
2018-07-08T07:34:51.422Z,97345.64
2018-07-08T07:37:22.176Z,97349.78
2018-07-08T07:39:52.746Z,97356.08
2018-07-08T07:42:23.189Z,97354.31
2018-07-08T07:44:53.529Z,97352.49
2018-07-08T07:47:24.266Z,97353.27
2018-07-08T07:49:54.572Z,97343.75
2018-07-08T07:52:25.369Z,97345.42
2018-07-08T07:54:55.633Z,97345.70
2018-07-08T07:57:25.960Z,97339.95
2018-07-08T07:59:56.300Z,97338.85
2018-07-08T08:02:27.063Z,97333.87
2018-07-08T08:05:01.052Z,97335.98
2018-07-08T08:07:31.057Z,97339.33
2018-07-08T08:10:01.682Z,97334.96
2018-07-08T08:12:31.962Z,97334.27
2018-07-08T08:15:02.603Z,97336.89
2018-07-08T08:17:33.255Z,97334.98
2018-07-08T08:20:03.894Z,97334.93
2018-07-08T08:22:34.125Z,97334.80
2018-07-08T08:25:04.764Z,97328.11
2018-07-08T08:27:35.660Z,97330.03
2018-07-08T08:30:06.427Z,97332.38
2018-07-08T08:32:37.958Z,97326.41
2018-07-08T08:35:10.508Z,97332.36
2018-07-08T08:37:41.918Z,97332.86
2018-07-08T08:40:12.894Z,97335.19
2018-07-08T08:42:43.338Z,97333.73
2018-07-08T08:45:14.660Z,97328.78
2018-07-08T08:47:44.848Z,97334.49
2018-07-08T08:50:15.893Z,97333.69
2018-07-08T08:52:46.513Z,97331.27
2018-07-08T08:55:16.936Z,97331.06
2018-07-08T08:57:47.347Z,97328.75
2018-07-08T09:00:18.675Z,97327.48
2018-07-08T09:02:49.210Z,97321.21
2018-07-08T09:05:19.919Z,97325.78
2018-07-08T09:07:50.972Z,97329.55
2018-07-08T09:10:21.460Z,97323.30
2018-07-08T09:12:51.533Z,97324.66
2018-07-08T09:15:22.126Z,97330.76
2018-07-08T09:17:53.083Z,97326.96
2018-07-08T09:20:23.467Z,97320.88
2018-07-08T09:22:55.531Z,97327.27
2018-07-08T09:25:25.371Z,97326.78
2018-07-08T09:27:56.137Z,97327.27
2018-07-08T09:30:25.995Z,97322.59
2018-07-08T09:32:56.388Z,97326.78
2018-07-08T09:35:27.554Z,97325.92
2018-07-08T09:37:58.200Z,97330.67
2018-07-08T09:40:28.435Z,97325.49
2018-07-08T09:42:59.104Z,97333.86
2018-07-08T09:45:30.919Z,97337.52
2018-07-08T09:48:01.903Z,97333.14
2018-07-08T09:50:32.029Z,97332.48
2018-07-08T09:53:02.231Z,97333.64
2018-07-08T09:55:32.966Z,97335.45
2018-07-08T09:58:03.467Z,97331.07
2018-07-08T10:00:33.905Z,97326.67
2018-07-08T10:03:04.700Z,97325.98
2018-07-08T10:05:36.077Z,97327.84
2018-07-08T10:08:07.276Z,97318.39
2018-07-08T10:10:38.743Z,97323.31
2018-07-08T10:13:09.052Z,97315.05
2018-07-08T10:15:39.692Z,97321.14
2018-07-08T10:18:09.970Z,97322.05
2018-07-08T10:20:40.618Z,97320.84
2018-07-08T10:23:11.408Z,97318.22
2018-07-08T10:25:43.273Z,97321.62
2018-07-08T10:28:18.937Z,97322.99
2018-07-08T10:30:49.789Z,97330.14
2018-07-08T10:33:20.405Z,97330.36
2018-07-08T10:36:05.149Z,97332.56
2018-07-08T10:38:36.455Z,97322.69
2018-07-08T10:41:06.937Z,97324.02
2018-07-08T10:43:37.964Z,97319.36
2018-07-08T10:46:09.005Z,97320.20
2018-07-08T10:48:39.604Z,97314.20
2018-07-08T10:51:10.330Z,97315.54
2018-07-08T10:53:41.117Z,97306.02
2018-07-08T10:56:11.848Z,97309.44
2018-07-08T10:58:42.308Z,97312.90
2018-07-08T11:01:12.985Z,97310.87
2018-07-08T11:03:43.377Z,97301.52
2018-07-08T11:06:13.657Z,97308.55
2018-07-08T11:08:44.339Z,97301.84
2018-07-08T11:11:14.956Z,97309.91
2018-07-08T11:13:45.730Z,97306.81
2018-07-08T11:16:16.559Z,97308.06
2018-07-08T11:18:47.231Z,97306.42
2018-07-08T11:21:17.646Z,97308.06
2018-07-08T11:23:48.279Z,97297.88
2018-07-08T11:26:19.009Z,97298.29
2018-07-08T11:31:34.153Z,97290.73
2018-07-08T11:34:04.959Z,97294.13
2018-07-08T11:36:35.656Z,97297.35
2018-07-08T11:39:07.441Z,97289.20
2018-07-08T11:41:38.214Z,97288.72
2018-07-08T11:44:09.082Z,97290.27
2018-07-08T11:46:39.827Z,97284.43
2018-07-08T11:49:10.279Z,97284.34
2018-07-08T11:51:40.584Z,97279.81
2018-07-08T11:54:11.716Z,97277.25
2018-07-08T11:56:42.354Z,97274.93
2018-07-08T11:59:13.376Z,97281.69
2018-07-08T12:01:43.999Z,97281.62
2018-07-08T12:04:14.720Z,97282.58
2018-07-08T12:06:45.298Z,97283.60
2018-07-08T12:09:16.014Z,97286.58
2018-07-08T12:11:46.522Z,97285.69
2018-07-08T12:14:17.639Z,97281.02
2018-07-08T12:16:48.203Z,97286.34
2018-07-08T12:19:18.666Z,97278.31
2018-07-08T12:21:49.038Z,97278.52
2018-07-08T12:24:19.306Z,97270.13
2018-07-08T12:26:49.958Z,97279.63
2018-07-08T12:29:20.460Z,97280.00
2018-07-08T12:31:52.709Z,97273.27
2018-07-08T12:34:23.416Z,97276.41
2018-07-08T12:36:54.295Z,97278.72
2018-07-08T12:39:24.858Z,97279.99
2018-07-08T12:41:55.277Z,97262.13
2018-07-08T12:44:26.174Z,97261.25
2018-07-08T12:46:56.993Z,97267.39
2018-07-08T12:49:27.381Z,97269.91
2018-07-08T12:51:58.134Z,97260.24
2018-07-08T12:54:29.015Z,97256.05
2018-07-08T12:56:59.737Z,97264.63
2018-07-08T12:59:30.541Z,97274.66
2018-07-08T13:02:01.606Z,97262.06
2018-07-08T13:04:32.455Z,97265.98
2018-07-08T13:07:03.201Z,97270.55
2018-07-08T13:09:34.247Z,97267.77
2018-07-08T13:12:04.915Z,97264.42
2018-07-08T13:14:35.586Z,97257.95
2018-07-08T13:17:06.389Z,97267.41
2018-07-08T13:19:36.785Z,97274.05
2018-07-08T13:22:07.651Z,97267.71
2018-07-08T13:24:38.926Z,97267.75
2018-07-08T13:27:09.080Z,97266.74
2018-07-08T13:29:39.427Z,97263.33
2018-07-08T13:32:09.785Z,97261.50
2018-07-08T13:34:39.616Z,97265.61
2018-07-08T13:37:10.343Z,97265.00
2018-07-08T13:39:41.534Z,97263.77
2018-07-08T13:42:12.166Z,97256.41
2018-07-08T13:44:42.850Z,97257.19
2018-07-08T13:47:13.754Z,97257.31
2018-07-08T13:49:44.363Z,97252.88
2018-07-08T13:52:15.453Z,97256.95
2018-07-08T13:54:46.900Z,97264.36
2018-07-08T13:57:16.985Z,97255.17
2018-07-08T13:59:47.617Z,97257.34
2018-07-08T14:02:18.153Z,97256.41
2018-07-08T14:04:49.854Z,97258.45
2018-07-08T14:07:21.152Z,97250.63
2018-07-08T14:09:51.811Z,97243.09
2018-07-08T14:12:22.364Z,97238.20
2018-07-08T14:14:53.181Z,97231.48
2018-07-08T14:17:38.292Z,97229.63
2018-07-08T14:20:09.305Z,97233.80
2018-07-08T14:22:39.317Z,97236.02
2018-07-08T14:25:09.713Z,97226.91
2018-07-08T14:27:40.291Z,97222.97
2018-07-08T14:30:11.119Z,97224.92
2018-07-08T14:32:41.863Z,97229.92
2018-07-08T14:35:12.571Z,97242.42
2018-07-08T14:37:43.367Z,97228.85
2018-07-08T14:40:13.317Z,97239.19
2018-07-08T14:42:43.992Z,97232.30
2018-07-08T14:45:14.505Z,97236.05
2018-07-08T14:47:44.939Z,97232.59
2018-07-08T14:50:15.797Z,97223.62
2018-07-08T14:52:46.195Z,97233.73
2018-07-08T14:55:16.810Z,97234.46
2018-07-08T14:57:47.592Z,97226.84
2018-07-08T15:00:18.308Z,97224.98
2018-07-08T15:02:49.799Z,97232.20
2018-07-08T15:05:20.249Z,97229.39
2018-07-08T15:20:44.606Z,97235.75
2018-07-08T15:23:15.240Z,97225.70
2018-07-08T15:25:46.210Z,97221.95
2018-07-08T15:28:17.276Z,97219.22
2018-07-08T15:30:47.732Z,97217.56
2018-07-08T15:33:18.348Z,97220.06
2018-07-08T15:35:49.094Z,97216.41
2018-07-08T15:38:19.523Z,97219.84
2018-07-08T15:40:50.166Z,97215.55
2018-07-08T15:43:20.116Z,97209.02
2018-07-08T15:45:50.550Z,97213.00
2018-07-08T15:48:20.518Z,97211.97
2018-07-08T15:50:51.516Z,97219.36
2018-07-08T15:53:21.565Z,97214.08
2018-07-08T15:55:52.176Z,97217.05
2018-07-08T15:58:22.527Z,97213.19
2018-07-08T16:00:53.166Z,97211.07
2018-07-08T16:03:23.585Z,97209.38
2018-07-08T16:05:54.358Z,97214.09
2018-07-08T16:08:25.847Z,97212.87
2018-07-08T16:10:56.643Z,97218.58
2018-07-08T16:13:27.312Z,97218.72
2018-07-08T16:15:57.721Z,97217.79
2018-07-08T16:18:28.824Z,97220.35
2018-07-08T16:20:59.892Z,97215.33
2018-07-08T16:23:30.319Z,97211.06
2018-07-08T16:26:00.789Z,97209.78
2018-07-08T16:28:32.590Z,97204.76
2018-07-08T16:31:03.254Z,97206.86
2018-07-08T16:33:34.312Z,97205.14
2018-07-08T16:36:05.448Z,97207.13
2018-07-08T16:38:36.347Z,97206.70
2018-07-08T16:41:07.016Z,97213.50
2018-07-08T16:43:37.287Z,97210.15
2018-07-08T16:46:08.555Z,97206.43
2018-07-08T16:48:38.918Z,97205.14
2018-07-08T16:51:09.664Z,97206.43
2018-07-08T16:53:41.680Z,97211.96
2018-07-08T16:56:12.838Z,97215.06
2018-07-08T16:58:43.463Z,97216.98
2018-07-08T17:01:14.212Z,97213.21
2018-07-08T17:03:44.850Z,97215.02
2018-07-08T17:06:15.201Z,97222.34
2018-07-08T17:08:45.596Z,97221.64
2018-07-08T17:11:16.820Z,97218.17
2018-07-08T17:13:47.858Z,97220.75
2018-07-08T17:16:18.247Z,97216.22
2018-07-08T17:18:48.903Z,97217.06
2018-07-08T17:21:19.553Z,97210.72
2018-07-08T17:23:49.982Z,97219.39
2018-07-08T17:26:20.426Z,97222.26
2018-07-08T17:28:51.329Z,97224.90
2018-07-08T17:31:22.181Z,97220.64
2018-07-08T17:33:52.504Z,97221.05
2018-07-08T17:36:23.187Z,97228.20
2018-07-08T17:38:53.539Z,97228.97
2018-07-08T17:41:24.979Z,97228.48
2018-07-08T17:43:55.672Z,97226.27
2018-07-08T17:46:25.825Z,97227.63
2018-07-08T17:48:56.553Z,97228.48
2018-07-08T17:51:27.246Z,97229.52
2018-07-08T17:53:57.456Z,97227.56
2018-07-08T17:56:28.865Z,97228.80
2018-07-08T17:58:59.740Z,97236.72
2018-07-08T18:01:30.600Z,97237.68
2018-07-08T18:04:00.646Z,97237.75
2018-07-08T18:06:31.256Z,97237.88
2018-07-08T18:09:02.099Z,97240.71
2018-07-08T18:11:32.688Z,97236.58
2018-07-08T18:14:03.030Z,97237.70
2018-07-08T18:16:33.424Z,97236.25
2018-07-08T18:19:04.793Z,97236.61
2018-07-08T18:21:35.612Z,97238.55
2018-07-08T18:24:06.518Z,97239.70
2018-07-08T18:26:37.013Z,97235.78
2018-07-08T18:29:07.375Z,97244.31
2018-07-08T18:31:41.049Z,97240.70
2018-07-08T18:34:11.692Z,97246.14
2018-07-08T18:36:42.098Z,97241.67
2018-07-08T18:39:12.700Z,97244.95
2018-07-08T18:41:43.221Z,97247.94
2018-07-08T18:44:13.909Z,97248.56
2018-07-08T18:46:44.379Z,97253.95
2018-07-08T18:49:14.649Z,97256.36
2018-07-08T18:51:45.214Z,97260.07
2018-07-08T18:54:16.340Z,97259.00
2018-07-08T18:59:23.314Z,97258.28
2018-07-08T19:01:53.923Z,97263.77
2018-07-08T19:04:24.619Z,97263.25
2018-07-08T19:06:55.525Z,97266.94
2018-07-08T19:09:26.719Z,97267.98
2018-07-08T19:11:56.987Z,97267.42
2018-07-08T19:14:27.735Z,97268.47
2018-07-08T19:16:58.327Z,97267.84
2018-07-08T19:19:29.194Z,97270.61
2018-07-08T19:22:00.422Z,97269.12
2018-07-08T19:24:30.923Z,97277.05
2018-07-08T19:27:01.823Z,97271.28
2018-07-08T19:29:32.389Z,97273.77
2018-07-08T19:32:04.014Z,97273.55
2018-07-08T19:34:34.471Z,97276.41
2018-07-08T19:37:05.613Z,97280.55
2018-07-08T19:39:36.148Z,97285.52
2018-07-08T19:42:06.596Z,97281.10
2018-07-08T19:44:37.357Z,97286.05
2018-07-08T19:47:08.480Z,97294.84
2018-07-08T19:49:39.632Z,97295.09
2018-07-08T19:52:09.972Z,97298.25
2018-07-08T19:54:40.278Z,97296.73
2018-07-08T19:57:11.463Z,97301.65
2018-07-08T19:59:42.153Z,97296.73
2018-07-08T20:02:13.046Z,97301.64
2018-07-08T20:04:43.829Z,97306.98
2018-07-08T20:07:14.350Z,97305.75
2018-07-08T20:09:44.618Z,97309.33
2018-07-08T20:12:15.058Z,97310.33
2018-07-08T20:14:45.950Z,97309.64
2018-07-08T20:17:16.530Z,97309.73
2018-07-08T20:19:47.016Z,97310.67
2018-07-08T20:22:17.435Z,97314.20
2018-07-08T20:24:48.097Z,97316.05
2018-07-08T20:27:18.803Z,97314.89
2018-07-08T20:29:49.584Z,97320.68
2018-07-08T20:32:20.309Z,97319.52
2018-07-08T20:34:51.058Z,97319.65
2018-07-08T20:37:21.545Z,97322.77
2018-07-08T20:39:53.216Z,97319.88
2018-07-08T20:42:23.790Z,97320.40
2018-07-08T20:44:54.623Z,97324.77
2018-07-08T20:47:24.945Z,97327.39
2018-07-08T20:49:55.673Z,97330.86
2018-07-08T20:52:26.625Z,97334.34
2018-07-08T20:54:57.545Z,97328.45
2018-07-08T20:57:28.686Z,97336.33
2018-07-08T20:59:59.653Z,97336.91
2018-07-08T21:02:30.465Z,97336.55
2018-07-08T21:05:01.078Z,97329.83
2018-07-08T21:07:32.062Z,97333.34
2018-07-08T21:10:03.813Z,97333.45
2018-07-08T21:12:34.381Z,97333.95
2018-07-08T21:15:05.590Z,97334.45
2018-07-08T21:17:36.418Z,97334.95
2018-07-08T21:20:06.971Z,97327.72
2018-07-08T21:22:37.760Z,97334.69
2018-07-08T21:25:08.545Z,97332.66
2018-07-08T21:27:39.340Z,97336.61
2018-07-08T21:30:10.183Z,97329.89
2018-07-08T21:32:40.844Z,97331.30
2018-07-08T21:35:12.019Z,97331.00
2018-07-08T21:37:42.509Z,97331.98
2018-07-08T21:40:13.226Z,97329.88
2018-07-08T21:42:43.893Z,97335.55
2018-07-08T21:45:15.055Z,97332.14
2018-07-08T21:47:45.869Z,97336.46
2018-07-08T21:50:16.881Z,97342.49
2018-07-08T21:52:47.582Z,97344.33
2018-07-08T21:55:18.698Z,97349.50
2018-07-08T21:57:49.028Z,97341.87
2018-07-08T22:00:20.177Z,97347.56
2018-07-08T22:02:50.423Z,97344.25
2018-07-08T22:05:21.090Z,97343.91
2018-07-08T22:07:56.740Z,97342.70
2018-07-08T22:10:30.332Z,97347.44
2018-07-08T22:13:02.201Z,97342.76
2018-07-08T22:15:32.891Z,97342.38
2018-07-08T22:18:03.520Z,97343.27
2018-07-08T22:20:34.193Z,97340.70
2018-07-08T22:23:04.427Z,97341.19
2018-07-08T22:25:34.876Z,97341.66
2018-07-08T22:28:05.356Z,97341.72
2018-07-08T22:30:36.129Z,97339.59
2018-07-08T22:33:07.343Z,97340.93
2018-07-08T22:35:38.129Z,97339.27
2018-07-08T22:38:08.997Z,97337.61
2018-07-08T22:40:39.701Z,97334.23
2018-07-08T22:43:10.649Z,97338.55
2018-07-08T22:45:41.468Z,97344.58
2018-07-08T22:48:12.389Z,97342.47
2018-07-08T22:50:42.752Z,97337.43
2018-07-08T22:53:13.354Z,97346.87
2018-07-08T22:55:44.116Z,97351.57
2018-07-08T22:58:14.838Z,97343.87
2018-07-08T23:00:55.391Z,97339.67
2018-07-08T23:03:57.683Z,97338.00
2018-07-08T23:06:28.922Z,97341.87
2018-07-08T23:08:59.447Z,97340.63
2018-07-08T23:11:30.300Z,97341.53
2018-07-08T23:14:01.636Z,97335.11
2018-07-08T23:16:32.093Z,97338.16
2018-07-08T23:19:02.694Z,97336.42
2018-07-08T23:21:32.593Z,97330.46
2018-07-08T23:24:03.239Z,97333.92
2018-07-08T23:26:33.632Z,97334.44
2018-07-08T23:29:04.348Z,97335.08
2018-07-08T23:31:34.683Z,97333.52
2018-07-08T23:34:05.374Z,97331.39
2018-07-08T23:36:35.336Z,97333.56
2018-07-08T23:39:06.071Z,97329.71
2018-07-08T23:41:36.842Z,97331.00
2018-07-08T23:44:07.396Z,97326.75
2018-07-08T23:46:38.152Z,97328.44
2018-07-08T23:49:09.088Z,97321.62
2018-07-08T23:51:39.412Z,97324.19
2018-07-08T23:54:10.079Z,97323.35
2018-07-08T23:56:40.752Z,97326.31
2018-07-08T23:59:11.283Z,97322.47
